sensor_id;sensor_type;location;lat;lon;timestamp;P1;durP1;ratioP1;P2;durP2;ratioP2
50104;SDS011;47690;39.202;-77.198;2023-07-29T00:00:01;2.90;;;2.33;;
50104;SDS011;47690;39.202;-77.198;2023-07-29T00:02:42;3.92;;;2.28;;
50104;SDS011;47690;39.202;-77.198;2023-07-29T00:05:13;2.92;;;2.20;;
50104;SDS011;47690;39.202;-77.198;2023-07-29T00:07:42;4.07;;;2.42;;
50104;SDS011;47690;39.202;-77.198;2023-07-29T00:10:10;2.63;;;2.30;;
50104;SDS011;47690;39.202;-77.198;2023-07-29T00:12:40;2.55;;;2.30;;
50104;SDS011;47690;39.202;-77.198;2023-07-29T00:15:09;3.40;;;2.40;;
50104;SDS011;47690;39.202;-77.198;2023-07-29T00:17:38;2.72;;;2.20;;
50104;SDS011;47690;39.202;-77.198;2023-07-29T00:20:10;4.22;;;2.30;;
50104;SDS011;47690;39.202;-77.198;2023-07-29T00:22:40;2.42;;;2.22;;
50104;SDS011;47690;39.202;-77.198;2023-07-29T00:25:12;4.00;;;2.40;;
50104;SDS011;47690;39.202;-77.198;2023-07-29T00:27:42;2.50;;;2.30;;
50104;SDS011;47690;39.202;-77.198;2023-07-29T00:30:11;4.53;;;2.42;;
50104;SDS011;47690;39.202;-77.198;2023-07-29T00:32:42;2.63;;;2.28;;
50104;SDS011;47690;39.202;-77.198;2023-07-29T00:35:12;3.85;;;2.40;;
50104;SDS011;47690;39.202;-77.198;2023-07-29T00:37:41;3.20;;;2.50;;
50104;SDS011;47690;39.202;-77.198;2023-07-29T00:40:15;2.80;;;2.50;;
50104;SDS011;47690;39.202;-77.198;2023-07-29T00:42:48;2.92;;;2.40;;
50104;SDS011;47690;39.202;-77.198;2023-07-29T00:45:21;2.95;;;2.60;;
50104;SDS011;47690;39.202;-77.198;2023-07-29T00:47:54;2.90;;;2.50;;
50104;SDS011;47690;39.202;-77.198;2023-07-29T00:50:24;3.42;;;2.47;;
50104;SDS011;47690;39.202;-77.198;2023-07-29T00:52:58;2.85;;;2.42;;
50104;SDS011;47690;39.202;-77.198;2023-07-29T00:56:14;2.42;;;2.22;;
50104;SDS011;47690;39.202;-77.198;2023-07-29T00:59:08;2.78;;;2.35;;
50104;SDS011;47690;39.202;-77.198;2023-07-29T01:01:40;2.50;;;2.30;;
50104;SDS011;47690;39.202;-77.198;2023-07-29T01:04:13;2.83;;;2.53;;
50104;SDS011;47690;39.202;-77.198;2023-07-29T01:09:18;3.28;;;2.50;;
50104;SDS011;47690;39.202;-77.198;2023-07-29T01:12:39;3.42;;;2.50;;
50104;SDS011;47690;39.202;-77.198;2023-07-29T01:14:59;3.90;;;2.53;;
50104;SDS011;47690;39.202;-77.198;2023-07-29T01:17:32;3.05;;;2.53;;
50104;SDS011;47690;39.202;-77.198;2023-07-29T01:20:11;3.72;;;2.38;;
50104;SDS011;47690;39.202;-77.198;2023-07-29T01:22:46;2.90;;;2.42;;
50104;SDS011;47690;39.202;-77.198;2023-07-29T01:25:17;3.53;;;2.35;;
50104;SDS011;47690;39.202;-77.198;2023-07-29T01:27:48;3.63;;;2.47;;
50104;SDS011;47690;39.202;-77.198;2023-07-29T01:30:26;3.80;;;2.70;;
50104;SDS011;47690;39.202;-77.198;2023-07-29T01:35:44;3.33;;;2.33;;
50104;SDS011;47690;39.202;-77.198;2023-07-29T01:38:28;3.80;;;2.45;;
50104;SDS011;47690;39.202;-77.198;2023-07-29T01:41:02;3.00;;;2.55;;
50104;SDS011;47690;39.202;-77.198;2023-07-29T01:43:32;3.10;;;2.55;;
50104;SDS011;47690;39.202;-77.198;2023-07-29T02:35:23;3.65;;;2.88;;
50104;SDS011;47690;39.202;-77.198;2023-07-29T02:37:56;5.28;;;2.92;;
50104;SDS011;47690;39.202;-77.198;2023-07-29T02:40:28;3.88;;;3.00;;
50104;SDS011;47690;39.202;-77.198;2023-07-29T02:42:58;5.50;;;3.47;;
50104;SDS011;47690;39.202;-77.198;2023-07-29T02:45:28;4.13;;;3.08;;
50104;SDS011;47690;39.202;-77.198;2023-07-29T02:47:58;3.33;;;2.80;;
50104;SDS011;47690;39.202;-77.198;2023-07-29T02:50:28;6.47;;;3.28;;
50104;SDS011;47690;39.202;-77.198;2023-07-29T02:52:58;4.05;;;2.97;;
50104;SDS011;47690;39.202;-77.198;2023-07-29T02:55:34;3.33;;;2.60;;
50104;SDS011;47690;39.202;-77.198;2023-07-29T02:58:03;3.65;;;2.88;;
50104;SDS011;47690;39.202;-77.198;2023-07-29T03:00:32;3.30;;;2.83;;
50104;SDS011;47690;39.202;-77.198;2023-07-29T03:03:02;3.00;;;2.70;;
50104;SDS011;47690;39.202;-77.198;2023-07-29T03:05:32;5.43;;;2.95;;
50104;SDS011;47690;39.202;-77.198;2023-07-29T03:08:03;3.38;;;2.80;;
50104;SDS011;47690;39.202;-77.198;2023-07-29T03:10:34;3.25;;;2.85;;
50104;SDS011;47690;39.202;-77.198;2023-07-29T03:13:33;3.00;;;2.60;;
50104;SDS011;47690;39.202;-77.198;2023-07-29T03:16:11;4.90;;;2.97;;
50104;SDS011;47690;39.202;-77.198;2023-07-29T03:18:49;4.00;;;2.78;;
50104;SDS011;47690;39.202;-77.198;2023-07-29T03:21:20;4.47;;;3.30;;
50104;SDS011;47690;39.202;-77.198;2023-07-29T03:23:50;3.83;;;2.97;;
50104;SDS011;47690;39.202;-77.198;2023-07-29T03:26:18;5.78;;;2.72;;
50104;SDS011;47690;39.202;-77.198;2023-07-29T03:28:48;3.17;;;2.45;;
50104;SDS011;47690;39.202;-77.198;2023-07-29T03:31:17;3.13;;;2.80;;
50104;SDS011;47690;39.202;-77.198;2023-07-29T03:33:48;3.70;;;2.67;;
50104;SDS011;47690;39.202;-77.198;2023-07-29T03:36:17;3.58;;;2.70;;
50104;SDS011;47690;39.202;-77.198;2023-07-29T03:38:49;4.40;;;3.15;;
50104;SDS011;47690;39.202;-77.198;2023-07-29T03:41:18;3.95;;;2.90;;
50104;SDS011;47690;39.202;-77.198;2023-07-29T03:43:47;3.60;;;2.75;;
50104;SDS011;47690;39.202;-77.198;2023-07-29T03:46:16;5.00;;;2.90;;
50104;SDS011;47690;39.202;-77.198;2023-07-29T03:48:50;3.95;;;3.10;;
50104;SDS011;47690;39.202;-77.198;2023-07-29T03:51:19;3.88;;;2.70;;
50104;SDS011;47690;39.202;-77.198;2023-07-29T03:53:50;4.28;;;2.80;;
50104;SDS011;47690;39.202;-77.198;2023-07-29T03:56:19;3.40;;;2.83;;
50104;SDS011;47690;39.202;-77.198;2023-07-29T03:58:49;4.03;;;3.00;;
50104;SDS011;47690;39.202;-77.198;2023-07-29T04:01:18;2.92;;;2.45;;
50104;SDS011;47690;39.202;-77.198;2023-07-29T04:03:48;3.95;;;2.85;;
50104;SDS011;47690;39.202;-77.198;2023-07-29T04:06:16;3.15;;;2.80;;
50104;SDS011;47690;39.202;-77.198;2023-07-29T04:08:46;3.00;;;2.70;;
50104;SDS011;47690;39.202;-77.198;2023-07-29T04:11:16;5.32;;;2.90;;
50104;SDS011;47690;39.202;-77.198;2023-07-29T04:13:45;3.20;;;2.80;;
50104;SDS011;47690;39.202;-77.198;2023-07-29T04:16:15;5.53;;;2.67;;
50104;SDS011;47690;39.202;-77.198;2023-07-29T04:18:44;4.30;;;2.95;;
50104;SDS011;47690;39.202;-77.198;2023-07-29T04:21:15;3.40;;;2.58;;
50104;SDS011;47690;39.202;-77.198;2023-07-29T04:23:45;3.30;;;3.00;;
50104;SDS011;47690;39.202;-77.198;2023-07-29T04:26:16;3.35;;;2.60;;
50104;SDS011;47690;39.202;-77.198;2023-07-29T04:28:44;2.97;;;2.67;;
50104;SDS011;47690;39.202;-77.198;2023-07-29T04:31:14;3.22;;;2.65;;
50104;SDS011;47690;39.202;-77.198;2023-07-29T04:33:43;3.13;;;2.83;;
50104;SDS011;47690;39.202;-77.198;2023-07-29T04:36:17;3.97;;;3.10;;
50104;SDS011;47690;39.202;-77.198;2023-07-29T04:38:48;4.03;;;2.70;;
50104;SDS011;47690;39.202;-77.198;2023-07-29T04:41:21;4.18;;;2.63;;
50104;SDS011;47690;39.202;-77.198;2023-07-29T04:43:52;3.70;;;2.47;;
50104;SDS011;47690;39.202;-77.198;2023-07-29T04:46:21;3.45;;;2.78;;
50104;SDS011;47690;39.202;-77.198;2023-07-29T04:48:51;4.18;;;2.90;;
50104;SDS011;47690;39.202;-77.198;2023-07-29T04:51:21;3.85;;;2.67;;
50104;SDS011;47690;39.202;-77.198;2023-07-29T04:53:52;3.92;;;2.78;;
50104;SDS011;47690;39.202;-77.198;2023-07-29T04:56:21;4.13;;;2.95;;
50104;SDS011;47690;39.202;-77.198;2023-07-29T04:58:50;3.42;;;2.80;;
50104;SDS011;47690;39.202;-77.198;2023-07-29T05:01:20;2.97;;;2.67;;
50104;SDS011;47690;39.202;-77.198;2023-07-29T05:03:49;3.85;;;2.83;;
50104;SDS011;47690;39.202;-77.198;2023-07-29T05:06:18;3.47;;;3.17;;
50104;SDS011;47690;39.202;-77.198;2023-07-29T05:08:48;3.38;;;3.00;;
50104;SDS011;47690;39.202;-77.198;2023-07-29T05:11:16;3.53;;;3.17;;
50104;SDS011;47690;39.202;-77.198;2023-07-29T05:13:46;4.07;;;3.03;;
50104;SDS011;47690;39.202;-77.198;2023-07-29T05:16:15;4.57;;;2.80;;
50104;SDS011;47690;39.202;-77.198;2023-07-29T05:18:44;5.18;;;2.95;;
50104;SDS011;47690;39.202;-77.198;2023-07-29T05:21:14;4.00;;;3.13;;
50104;SDS011;47690;39.202;-77.198;2023-07-29T05:23:43;4.65;;;3.03;;
50104;SDS011;47690;39.202;-77.198;2023-07-29T05:26:12;4.78;;;3.13;;
50104;SDS011;47690;39.202;-77.198;2023-07-29T05:28:42;5.15;;;3.15;;
50104;SDS011;47690;39.202;-77.198;2023-07-29T05:31:12;3.42;;;3.13;;
50104;SDS011;47690;39.202;-77.198;2023-07-29T05:33:41;5.18;;;3.00;;
50104;SDS011;47690;39.202;-77.198;2023-07-29T05:36:12;4.32;;;3.00;;
50104;SDS011;47690;39.202;-77.198;2023-07-29T05:42:25;4.53;;;3.00;;
50104;SDS011;47690;39.202;-77.198;2023-07-29T05:45:53;6.05;;;3.65;;
50104;SDS011;47690;39.202;-77.198;2023-07-29T05:55:09;3.33;;;2.60;;
50104;SDS011;47690;39.202;-77.198;2023-07-29T05:57:48;5.93;;;2.72;;
50104;SDS011;47690;39.202;-77.198;2023-07-29T06:00:42;5.75;;;2.90;;
50104;SDS011;47690;39.202;-77.198;2023-07-29T06:03:49;3.72;;;2.72;;
50104;SDS011;47690;39.202;-77.198;2023-07-29T06:06:38;5.82;;;2.97;;
50104;SDS011;47690;39.202;-77.198;2023-07-29T06:09:14;4.72;;;2.78;;
50104;SDS011;47690;39.202;-77.198;2023-07-29T06:11:47;4.78;;;2.88;;
50104;SDS011;47690;39.202;-77.198;2023-07-29T06:14:28;3.80;;;3.00;;
50104;SDS011;47690;39.202;-77.198;2023-07-29T06:17:13;4.97;;;2.65;;
50104;SDS011;47690;39.202;-77.198;2023-07-29T06:19:47;3.60;;;2.80;;
50104;SDS011;47690;39.202;-77.198;2023-07-29T06:22:20;3.75;;;3.00;;
50104;SDS011;47690;39.202;-77.198;2023-07-29T06:25:01;4.65;;;3.08;;
50104;SDS011;47690;39.202;-77.198;2023-07-29T06:27:36;3.55;;;3.17;;
50104;SDS011;47690;39.202;-77.198;2023-07-29T06:30:13;5.65;;;2.97;;
50104;SDS011;47690;39.202;-77.198;2023-07-29T06:33:08;3.17;;;2.88;;
50104;SDS011;47690;39.202;-77.198;2023-07-29T06:38:48;5.10;;;3.00;;
50104;SDS011;47690;39.202;-77.198;2023-07-29T06:41:21;6.93;;;3.10;;
50104;SDS011;47690;39.202;-77.198;2023-07-29T06:43:59;4.25;;;3.00;;
50104;SDS011;47690;39.202;-77.198;2023-07-29T06:46:28;4.30;;;3.15;;
50104;SDS011;47690;39.202;-77.198;2023-07-29T06:48:59;4.07;;;2.72;;
50104;SDS011;47690;39.202;-77.198;2023-07-29T06:51:33;3.75;;;2.88;;
50104;SDS011;47690;39.202;-77.198;2023-07-29T06:54:04;4.68;;;3.20;;
50104;SDS011;47690;39.202;-77.198;2023-07-29T06:56:36;3.75;;;3.05;;
50104;SDS011;47690;39.202;-77.198;2023-07-29T06:59:05;5.20;;;3.05;;
50104;SDS011;47690;39.202;-77.198;2023-07-29T07:01:35;8.60;;;2.80;;
50104;SDS011;47690;39.202;-77.198;2023-07-29T07:04:04;3.20;;;2.90;;
50104;SDS011;47690;39.202;-77.198;2023-07-29T07:06:36;3.15;;;2.80;;
50104;SDS011;47690;39.202;-77.198;2023-07-29T07:09:05;5.05;;;2.90;;
50104;SDS011;47690;39.202;-77.198;2023-07-29T07:11:34;3.20;;;2.75;;
50104;SDS011;47690;39.202;-77.198;2023-07-29T07:14:07;4.75;;;3.10;;
50104;SDS011;47690;39.202;-77.198;2023-07-29T07:16:36;4.25;;;2.67;;
50104;SDS011;47690;39.202;-77.198;2023-07-29T07:19:08;3.42;;;2.97;;
50104;SDS011;47690;39.202;-77.198;2023-07-29T07:21:40;5.05;;;2.92;;
50104;SDS011;47690;39.202;-77.198;2023-07-29T07:24:14;4.97;;;3.10;;
50104;SDS011;47690;39.202;-77.198;2023-07-29T07:26:45;4.10;;;2.75;;
50104;SDS011;47690;39.202;-77.198;2023-07-29T07:29:19;3.50;;;3.00;;
50104;SDS011;47690;39.202;-77.198;2023-07-29T07:31:51;3.15;;;2.85;;
50104;SDS011;47690;39.202;-77.198;2023-07-29T07:34:28;4.07;;;2.88;;
50104;SDS011;47690;39.202;-77.198;2023-07-29T07:37:04;4.18;;;2.80;;
50104;SDS011;47690;39.202;-77.198;2023-07-29T07:39:39;3.20;;;2.90;;
50104;SDS011;47690;39.202;-77.198;2023-07-29T07:42:48;3.35;;;2.60;;
50104;SDS011;47690;39.202;-77.198;2023-07-29T07:45:37;2.95;;;2.60;;
50104;SDS011;47690;39.202;-77.198;2023-07-29T07:48:13;3.42;;;2.50;;
50104;SDS011;47690;39.202;-77.198;2023-07-29T07:51:13;6.10;;;3.08;;
50104;SDS011;47690;39.202;-77.198;2023-07-29T07:54:00;4.38;;;2.72;;
50104;SDS011;47690;39.202;-77.198;2023-07-29T07:56:32;4.30;;;2.67;;
50104;SDS011;47690;39.202;-77.198;2023-07-29T07:59:04;5.00;;;3.13;;
50104;SDS011;47690;39.202;-77.198;2023-07-29T08:01:36;3.88;;;2.45;;
50104;SDS011;47690;39.202;-77.198;2023-07-29T08:04:09;5.15;;;2.75;;
50104;SDS011;47690;39.202;-77.198;2023-07-29T08:06:40;3.47;;;2.75;;
50104;SDS011;47690;39.202;-77.198;2023-07-29T08:09:11;3.15;;;2.85;;
50104;SDS011;47690;39.202;-77.198;2023-07-29T08:11:42;3.72;;;2.92;;
50104;SDS011;47690;39.202;-77.198;2023-07-29T08:14:13;3.97;;;2.60;;
50104;SDS011;47690;39.202;-77.198;2023-07-29T08:16:44;3.30;;;2.60;;
50104;SDS011;47690;39.202;-77.198;2023-07-29T08:19:21;5.18;;;2.65;;
50104;SDS011;47690;39.202;-77.198;2023-07-29T08:22:07;5.40;;;2.85;;
50104;SDS011;47690;39.202;-77.198;2023-07-29T08:24:37;3.08;;;2.78;;
50104;SDS011;47690;39.202;-77.198;2023-07-29T08:27:08;3.17;;;2.83;;
50104;SDS011;47690;39.202;-77.198;2023-07-29T08:29:38;2.97;;;2.60;;
50104;SDS011;47690;39.202;-77.198;2023-07-29T08:32:08;6.00;;;2.65;;
50104;SDS011;47690;39.202;-77.198;2023-07-29T08:34:40;4.10;;;2.75;;
50104;SDS011;47690;39.202;-77.198;2023-07-29T08:37:12;4.55;;;2.60;;
50104;SDS011;47690;39.202;-77.198;2023-07-29T08:39:42;3.20;;;2.50;;
50104;SDS011;47690;39.202;-77.198;2023-07-29T08:42:15;3.47;;;2.60;;
50104;SDS011;47690;39.202;-77.198;2023-07-29T08:44:49;6.03;;;2.80;;
50104;SDS011;47690;39.202;-77.198;2023-07-29T08:47:32;4.50;;;2.90;;
50104;SDS011;47690;39.202;-77.198;2023-07-29T08:50:03;4.80;;;3.08;;
50104;SDS011;47690;39.202;-77.198;2023-07-29T08:52:35;5.53;;;3.08;;
50104;SDS011;47690;39.202;-77.198;2023-07-29T08:55:09;3.92;;;3.33;;
50104;SDS011;47690;39.202;-77.198;2023-07-29T08:57:43;3.97;;;3.40;;
50104;SDS011;47690;39.202;-77.198;2023-07-29T09:00:29;5.70;;;3.15;;
50104;SDS011;47690;39.202;-77.198;2023-07-29T09:05:38;3.88;;;2.83;;
50104;SDS011;47690;39.202;-77.198;2023-07-29T09:08:08;5.05;;;3.30;;
50104;SDS011;47690;39.202;-77.198;2023-07-29T09:10:41;3.30;;;3.00;;
50104;SDS011;47690;39.202;-77.198;2023-07-29T09:13:16;5.25;;;2.97;;
50104;SDS011;47690;39.202;-77.198;2023-07-29T09:15:45;5.93;;;3.35;;
50104;SDS011;47690;39.202;-77.198;2023-07-29T09:18:18;4.95;;;2.90;;
50104;SDS011;47690;39.202;-77.198;2023-07-29T09:20:49;3.42;;;3.13;;
50104;SDS011;47690;39.202;-77.198;2023-07-29T09:23:23;3.88;;;2.63;;
50104;SDS011;47690;39.202;-77.198;2023-07-29T09:26:04;3.08;;;2.42;;
50104;SDS011;47690;39.202;-77.198;2023-07-29T09:28:35;4.00;;;2.72;;
50104;SDS011;47690;39.202;-77.198;2023-07-29T09:31:18;4.30;;;2.90;;
50104;SDS011;47690;39.202;-77.198;2023-07-29T09:33:49;4.57;;;2.80;;
50104;SDS011;47690;39.202;-77.198;2023-07-29T09:39:10;6.43;;;2.75;;
50104;SDS011;47690;39.202;-77.198;2023-07-29T09:41:46;4.35;;;2.30;;
50104;SDS011;47690;39.202;-77.198;2023-07-29T09:44:20;3.72;;;2.42;;
50104;SDS011;47690;39.202;-77.198;2023-07-29T09:46:49;5.05;;;2.60;;
50104;SDS011;47690;39.202;-77.198;2023-07-29T09:49:20;3.58;;;2.33;;
50104;SDS011;47690;39.202;-77.198;2023-07-29T09:52:00;4.70;;;2.65;;
50104;SDS011;47690;39.202;-77.198;2023-07-29T09:54:36;4.30;;;2.40;;
50104;SDS011;47690;39.202;-77.198;2023-07-29T09:57:06;3.58;;;2.40;;
50104;SDS011;47690;39.202;-77.198;2023-07-29T09:59:37;3.53;;;2.60;;
50104;SDS011;47690;39.202;-77.198;2023-07-29T10:02:15;5.95;;;2.45;;
50104;SDS011;47690;39.202;-77.198;2023-07-29T10:04:48;5.40;;;2.50;;
50104;SDS011;47690;39.202;-77.198;2023-07-29T10:07:20;4.72;;;2.28;;
50104;SDS011;47690;39.202;-77.198;2023-07-29T10:09:55;8.95;;;2.45;;
50104;SDS011;47690;39.202;-77.198;2023-07-29T10:12:33;5.38;;;2.60;;
50104;SDS011;47690;39.202;-77.198;2023-07-29T10:15:08;4.45;;;2.97;;
50104;SDS011;47690;39.202;-77.198;2023-07-29T10:17:40;3.08;;;2.75;;
50104;SDS011;47690;39.202;-77.198;2023-07-29T10:20:13;4.68;;;3.83;;
50104;SDS011;47690;39.202;-77.198;2023-07-29T10:22:45;6.00;;;3.60;;
50104;SDS011;47690;39.202;-77.198;2023-07-29T10:25:18;4.63;;;3.20;;
50104;SDS011;47690;39.202;-77.198;2023-07-29T10:28:05;5.00;;;4.60;;
50104;SDS011;47690;39.202;-77.198;2023-07-29T10:30:37;4.40;;;3.47;;
50104;SDS011;47690;39.202;-77.198;2023-07-29T10:33:09;3.33;;;3.03;;
50104;SDS011;47690;39.202;-77.198;2023-07-29T10:35:41;3.40;;;2.83;;
50104;SDS011;47690;39.202;-77.198;2023-07-29T10:38:18;3.33;;;3.03;;
50104;SDS011;47690;39.202;-77.198;2023-07-29T10:40:57;3.95;;;2.85;;
50104;SDS011;47690;39.202;-77.198;2023-07-29T10:46:16;4.43;;;2.90;;
50104;SDS011;47690;39.202;-77.198;2023-07-29T10:48:52;3.20;;;2.72;;
50104;SDS011;47690;39.202;-77.198;2023-07-29T10:51:34;3.47;;;3.05;;
50104;SDS011;47690;39.202;-77.198;2023-07-29T10:54:12;5.60;;;3.30;;
50104;SDS011;47690;39.202;-77.198;2023-07-29T10:57:01;3.40;;;3.00;;
50104;SDS011;47690;39.202;-77.198;2023-07-29T10:59:37;4.20;;;3.30;;
50104;SDS011;47690;39.202;-77.198;2023-07-29T11:11:17;3.63;;;3.00;;
50104;SDS011;47690;39.202;-77.198;2023-07-29T11:13:49;5.43;;;3.03;;
50104;SDS011;47690;39.202;-77.198;2023-07-29T11:16:33;3.58;;;3.10;;
50104;SDS011;47690;39.202;-77.198;2023-07-29T11:19:08;3.60;;;3.30;;
50104;SDS011;47690;39.202;-77.198;2023-07-29T11:22:05;3.75;;;3.05;;
50104;SDS011;47690;39.202;-77.198;2023-07-29T11:24:49;4.70;;;3.17;;
50104;SDS011;47690;39.202;-77.198;2023-07-29T11:27:33;4.30;;;3.30;;
50104;SDS011;47690;39.202;-77.198;2023-07-29T11:30:12;6.45;;;3.58;;
50104;SDS011;47690;39.202;-77.198;2023-07-29T11:32:44;3.78;;;3.20;;
50104;SDS011;47690;39.202;-77.198;2023-07-29T11:35:28;5.63;;;2.97;;
50104;SDS011;47690;39.202;-77.198;2023-07-29T11:38:15;4.20;;;2.92;;
50104;SDS011;47690;39.202;-77.198;2023-07-29T11:41:12;5.95;;;2.90;;
50104;SDS011;47690;39.202;-77.198;2023-07-29T11:44:01;3.00;;;2.70;;
50104;SDS011;47690;39.202;-77.198;2023-07-29T11:46:40;3.33;;;2.92;;
50104;SDS011;47690;39.202;-77.198;2023-07-29T11:49:41;5.05;;;2.90;;
50104;SDS011;47690;39.202;-77.198;2023-07-29T11:53:34;5.03;;;3.00;;
50104;SDS011;47690;39.202;-77.198;2023-07-29T11:57:14;4.53;;;2.92;;
50104;SDS011;47690;39.202;-77.198;2023-07-29T12:00:12;4.72;;;2.65;;
50104;SDS011;47690;39.202;-77.198;2023-07-29T12:03:15;5.32;;;2.95;;
50104;SDS011;47690;39.202;-77.198;2023-07-29T12:06:09;3.97;;;3.13;;
50104;SDS011;47690;39.202;-77.198;2023-07-29T12:13:28;6.72;;;3.13;;
50104;SDS011;47690;39.202;-77.198;2023-07-29T12:16:01;4.35;;;3.17;;
50104;SDS011;47690;39.202;-77.198;2023-07-29T12:18:32;5.57;;;3.60;;
50104;SDS011;47690;39.202;-77.198;2023-07-29T12:21:02;4.70;;;3.22;;
50104;SDS011;47690;39.202;-77.198;2023-07-29T12:23:32;4.10;;;3.15;;
50104;SDS011;47690;39.202;-77.198;2023-07-29T12:26:01;6.15;;;3.10;;
50104;SDS011;47690;39.202;-77.198;2023-07-29T12:28:30;4.32;;;3.35;;
50104;SDS011;47690;39.202;-77.198;2023-07-29T12:31:00;3.67;;;3.30;;
50104;SDS011;47690;39.202;-77.198;2023-07-29T12:33:30;4.90;;;3.50;;
50104;SDS011;47690;39.202;-77.198;2023-07-29T12:36:01;4.68;;;3.50;;
50104;SDS011;47690;39.202;-77.198;2023-07-29T12:38:30;4.13;;;3.47;;
50104;SDS011;47690;39.202;-77.198;2023-07-29T12:41:00;4.82;;;3.25;;
50104;SDS011;47690;39.202;-77.198;2023-07-29T12:43:29;4.45;;;3.70;;
50104;SDS011;47690;39.202;-77.198;2023-07-29T12:45:58;5.00;;;3.50;;
50104;SDS011;47690;39.202;-77.198;2023-07-29T12:48:27;4.55;;;3.60;;
50104;SDS011;47690;39.202;-77.198;2023-07-29T12:50:56;4.60;;;4.00;;
50104;SDS011;47690;39.202;-77.198;2023-07-29T12:53:26;3.80;;;3.40;;
50104;SDS011;47690;39.202;-77.198;2023-07-29T12:55:57;4.28;;;3.22;;
50104;SDS011;47690;39.202;-77.198;2023-07-29T12:58:26;4.05;;;3.55;;
50104;SDS011;47690;39.202;-77.198;2023-07-29T13:00:56;6.45;;;3.92;;
50104;SDS011;47690;39.202;-77.198;2023-07-29T13:03:28;4.38;;;3.95;;
50104;SDS011;47690;39.202;-77.198;2023-07-29T13:05:58;4.13;;;3.72;;
50104;SDS011;47690;39.202;-77.198;2023-07-29T13:08:29;4.50;;;3.92;;
50104;SDS011;47690;39.202;-77.198;2023-07-29T13:11:02;5.05;;;3.80;;
50104;SDS011;47690;39.202;-77.198;2023-07-29T13:13:32;4.55;;;4.13;;
50104;SDS011;47690;39.202;-77.198;2023-07-29T13:16:01;4.07;;;3.63;;
50104;SDS011;47690;39.202;-77.198;2023-07-29T13:18:30;6.72;;;4.03;;
50104;SDS011;47690;39.202;-77.198;2023-07-29T13:21:00;4.30;;;3.80;;
50104;SDS011;47690;39.202;-77.198;2023-07-29T13:23:29;4.30;;;3.90;;
50104;SDS011;47690;39.202;-77.198;2023-07-29T13:25:58;5.22;;;4.20;;
50104;SDS011;47690;39.202;-77.198;2023-07-29T13:28:26;5.00;;;4.22;;
50104;SDS011;47690;39.202;-77.198;2023-07-29T13:30:56;4.20;;;3.80;;
50104;SDS011;47690;39.202;-77.198;2023-07-29T13:33:26;6.60;;;4.55;;
50104;SDS011;47690;39.202;-77.198;2023-07-29T13:35:56;4.50;;;3.50;;
50104;SDS011;47690;39.202;-77.198;2023-07-29T13:38:26;5.80;;;4.07;;
50104;SDS011;47690;39.202;-77.198;2023-07-29T13:40:56;5.32;;;4.03;;
50104;SDS011;47690;39.202;-77.198;2023-07-29T13:43:26;5.65;;;3.72;;
50104;SDS011;47690;39.202;-77.198;2023-07-29T13:45:56;7.72;;;4.35;;
50104;SDS011;47690;39.202;-77.198;2023-07-29T13:48:26;4.40;;;4.00;;
50104;SDS011;47690;39.202;-77.198;2023-07-29T13:50:56;6.63;;;4.22;;
50104;SDS011;47690;39.202;-77.198;2023-07-29T13:53:26;4.43;;;3.58;;
50104;SDS011;47690;39.202;-77.198;2023-07-29T13:55:56;4.57;;;3.85;;
50104;SDS011;47690;39.202;-77.198;2023-07-29T13:58:27;4.60;;;3.88;;
50104;SDS011;47690;39.202;-77.198;2023-07-29T14:00:56;4.57;;;4.03;;
50104;SDS011;47690;39.202;-77.198;2023-07-29T14:03:28;6.28;;;4.05;;
50104;SDS011;47690;39.202;-77.198;2023-07-29T14:05:58;4.82;;;4.35;;
50104;SDS011;47690;39.202;-77.198;2023-07-29T14:08:32;8.05;;;3.95;;
50104;SDS011;47690;39.202;-77.198;2023-07-29T14:11:04;4.72;;;4.28;;
50104;SDS011;47690;39.202;-77.198;2023-07-29T14:13:32;4.90;;;4.40;;
50104;SDS011;47690;39.202;-77.198;2023-07-29T14:16:01;4.75;;;4.35;;
50104;SDS011;47690;39.202;-77.198;2023-07-29T14:18:32;4.85;;;4.35;;
50104;SDS011;47690;39.202;-77.198;2023-07-29T14:21:01;5.47;;;4.72;;
50104;SDS011;47690;39.202;-77.198;2023-07-29T14:23:31;5.05;;;4.55;;
50104;SDS011;47690;39.202;-77.198;2023-07-29T14:26:01;5.82;;;4.95;;
50104;SDS011;47690;39.202;-77.198;2023-07-29T14:28:30;5.07;;;4.63;;
50104;SDS011;47690;39.202;-77.198;2023-07-29T14:30:59;5.70;;;5.18;;
50104;SDS011;47690;39.202;-77.198;2023-07-29T14:33:29;5.50;;;4.90;;
50104;SDS011;47690;39.202;-77.198;2023-07-29T14:35:58;5.78;;;4.97;;
50104;SDS011;47690;39.202;-77.198;2023-07-29T14:38:29;6.38;;;5.22;;
50104;SDS011;47690;39.202;-77.198;2023-07-29T14:40:58;5.18;;;4.68;;
50104;SDS011;47690;39.202;-77.198;2023-07-29T14:43:29;5.47;;;4.97;;
50104;SDS011;47690;39.202;-77.198;2023-07-29T14:45:58;6.55;;;5.05;;
50104;SDS011;47690;39.202;-77.198;2023-07-29T14:48:28;7.00;;;4.70;;
50104;SDS011;47690;39.202;-77.198;2023-07-29T14:50:58;7.45;;;5.25;;
50104;SDS011;47690;39.202;-77.198;2023-07-29T14:53:27;6.40;;;5.18;;
50104;SDS011;47690;39.202;-77.198;2023-07-29T14:55:56;7.93;;;4.72;;
50104;SDS011;47690;39.202;-77.198;2023-07-29T14:58:25;5.60;;;5.00;;
50104;SDS011;47690;39.202;-77.198;2023-07-29T15:00:55;5.22;;;4.72;;
50104;SDS011;47690;39.202;-77.198;2023-07-29T15:03:25;5.22;;;4.72;;
50104;SDS011;47690;39.202;-77.198;2023-07-29T15:05:54;6.15;;;5.10;;
50104;SDS011;47690;39.202;-77.198;2023-07-29T15:08:24;7.90;;;4.82;;
50104;SDS011;47690;39.202;-77.198;2023-07-29T15:10:54;5.47;;;4.97;;
50104;SDS011;47690;39.202;-77.198;2023-07-29T15:13:24;5.30;;;4.78;;
50104;SDS011;47690;39.202;-77.198;2023-07-29T15:15:53;5.53;;;5.00;;
50104;SDS011;47690;39.202;-77.198;2023-07-29T15:18:24;6.55;;;5.03;;
50104;SDS011;47690;39.202;-77.198;2023-07-29T15:20:58;5.35;;;4.65;;
50104;SDS011;47690;39.202;-77.198;2023-07-29T15:23:30;5.10;;;4.60;;
50104;SDS011;47690;39.202;-77.198;2023-07-29T15:25:59;5.30;;;4.75;;
50104;SDS011;47690;39.202;-77.198;2023-07-29T15:28:28;5.43;;;4.93;;
50104;SDS011;47690;39.202;-77.198;2023-07-29T15:30:57;6.30;;;4.95;;
50104;SDS011;47690;39.202;-77.198;2023-07-29T15:33:27;6.07;;;5.25;;
50104;SDS011;47690;39.202;-77.198;2023-07-29T15:35:56;6.28;;;5.15;;
50104;SDS011;47690;39.202;-77.198;2023-07-29T15:38:27;6.95;;;4.70;;
50104;SDS011;47690;39.202;-77.198;2023-07-29T15:40:56;5.15;;;4.65;;
50104;SDS011;47690;39.202;-77.198;2023-07-29T15:43:27;5.53;;;5.00;;
50104;SDS011;47690;39.202;-77.198;2023-07-29T15:45:56;5.28;;;4.78;;
50104;SDS011;47690;39.202;-77.198;2023-07-29T15:53:14;5.00;;;4.50;;
50104;SDS011;47690;39.202;-77.198;2023-07-29T16:22:15;4.50;;;4.10;;
50104;SDS011;47690;39.202;-77.198;2023-07-29T16:35:40;6.50;;;5.32;;
50104;SDS011;47690;39.202;-77.198;2023-07-29T16:47:31;5.82;;;5.22;;
50104;SDS011;47690;39.202;-77.198;2023-07-29T16:58:49;5.72;;;5.20;;
50104;SDS011;47690;39.202;-77.198;2023-07-29T17:18:55;6.95;;;5.78;;
50104;SDS011;47690;39.202;-77.198;2023-07-29T17:28:05;6.97;;;5.93;;
50104;SDS011;47690;39.202;-77.198;2023-07-29T17:32:53;8.18;;;5.88;;
50104;SDS011;47690;39.202;-77.198;2023-07-29T17:36:31;8.73;;;5.47;;
50104;SDS011;47690;39.202;-77.198;2023-07-29T17:42:26;6.85;;;6.18;;
50104;SDS011;47690;39.202;-77.198;2023-07-29T17:46:44;6.40;;;5.80;;
50104;SDS011;47690;39.202;-77.198;2023-07-29T17:59:06;6.35;;;5.75;;
50104;SDS011;47690;39.202;-77.198;2023-07-29T18:02:37;8.27;;;6.13;;
50104;SDS011;47690;39.202;-77.198;2023-07-29T18:29:13;9.13;;;6.07;;
50104;SDS011;47690;39.202;-77.198;2023-07-29T18:33:44;6.85;;;6.15;;
50104;SDS011;47690;39.202;-77.198;2023-07-29T18:37:50;6.25;;;5.55;;
50104;SDS011;47690;39.202;-77.198;2023-07-29T18:47:23;7.57;;;6.20;;